Time;durP1;ratioP1;P1;durP2;ratioP2;P2;SDS_P1;SDS_P2;PMS_P1;PMS_P2;Temp;Humidity;BMP_temperature;BMP_pressure;BME280_temperature;BME280_humidity;BME280_pressure;Samples;Min_cycle;Max_cycle;Signal;HPM_P1;HPM_P2
2021/01/12 00:01:07;;;;;;;18.70;13.20;;;;;;;2.96;100.00;99867.56;5203295;28;20041;-77
2021/01/12 00:03:37;;;;;;;19.73;12.95;;;;;;;2.96;100.00;99854.66;5202843;28;20105;-77
2021/01/12 00:06:08;;;;;;;20.00;13.05;;;;;;;2.91;100.00;99858.19;5203782;28;20048;-77
2021/01/12 00:08:38;;;;;;;19.95;13.07;;;;;;;2.86;100.00;99854.84;5203514;28;20040;-77
2021/01/12 00:11:08;;;;;;;22.90;13.20;;;;;;;2.92;100.00;99853.03;5203782;28;20123;-77
2021/01/12 00:13:38;;;;;;;20.67;12.80;;;;;;;2.94;100.00;99847.81;5203634;28;20460;-77
2021/01/12 00:16:09;;;;;;;20.85;13.10;;;;;;;2.94;100.00;99843.53;5204064;28;20155;-77
2021/01/12 00:18:39;;;;;;;19.83;12.88;;;;;;;2.86;100.00;99839.38;5203611;28;20040;-78
2021/01/12 00:21:09;;;;;;;20.83;13.63;;;;;;;2.99;100.00;99828.81;5203722;28;20032;-77
2021/01/12 00:23:39;;;;;;;20.15;12.85;;;;;;;2.95;100.00;99828.88;5203264;28;20084;-77
2021/01/12 00:26:10;;;;;;;19.40;12.77;;;;;;;2.91;100.00;99841.00;5203685;28;20025;-77
2021/01/12 00:28:40;;;;;;;20.63;12.88;;;;;;;2.90;100.00;99833.28;5203647;28;20022;-77
2021/01/12 00:31:10;;;;;;;20.95;13.15;;;;;;;2.97;100.00;99824.53;5203182;28;20108;-77
2021/01/12 00:33:41;;;;;;;21.38;12.90;;;;;;;2.87;100.00;99829.00;5203513;28;20030;-77
2021/01/12 00:36:11;;;;;;;19.52;13.15;;;;;;;2.98;100.00;99821.06;5202974;28;20503;-77
2021/01/12 00:38:41;;;;;;;19.67;12.73;;;;;;;2.96;100.00;99820.25;5203436;28;20029;-77
2021/01/12 00:41:11;;;;;;;17.92;12.45;;;;;;;2.96;100.00;99809.94;5202832;28;20100;-77
2021/01/12 00:43:42;;;;;;;18.35;12.40;;;;;;;2.93;100.00;99797.97;5203107;28;20649;-77
2021/01/12 00:46:12;;;;;;;21.35;12.77;;;;;;;2.87;100.00;99807.53;5202654;28;20091;-77
2021/01/12 00:48:42;;;;;;;20.45;13.15;;;;;;;2.80;100.00;99813.66;5202020;28;20028;-78
2021/01/12 00:51:13;;;;;;;18.23;12.75;;;;;;;2.79;100.00;99811.94;5202041;28;20021;-77
2021/01/12 00:53:43;;;;;;;18.55;12.00;;;;;;;2.77;100.00;99808.56;5200498;28;20076;-77
2021/01/12 00:56:14;;;;;;;17.67;12.60;;;;;;;2.87;100.00;99795.47;5202954;28;20033;-77
2021/01/12 00:58:45;;;;;;;17.73;12.05;;;;;;;2.82;100.00;99791.28;5201345;28;20040;-77
2021/01/12 01:01:16;;;;;;;18.45;12.00;;;;;;;2.72;100.00;99784.56;5203014;28;20472;-77
2021/01/12 01:03:46;;;;;;;19.38;12.55;;;;;;;2.84;100.00;99779.22;5202568;28;20022;-77
2021/01/12 01:06:16;;;;;;;19.42;13.27;;;;;;;2.78;100.00;99777.59;5203372;28;20032;-77
2021/01/12 01:08:47;;;;;;;21.33;13.07;;;;;;;2.84;100.00;99768.91;5202823;28;20061;-78
2021/01/12 01:11:19;;;;;;;17.75;11.75;;;;;;;2.82;100.00;99770.66;5202601;28;20032;-77
2021/01/12 01:13:49;;;;;;;20.67;12.50;;;;;;;2.92;100.00;99756.69;5202628;28;20105;-77
2021/01/12 01:16:19;;;;;;;16.60;11.35;;;;;;;2.92;100.00;99752.41;5202931;28;20101;-77
2021/01/12 01:18:50;;;;;;;16.92;12.05;;;;;;;2.94;100.00;99755.81;5199335;28;20025;-77
2021/01/12 01:21:20;;;;;;;20.83;12.75;;;;;;;2.94;100.00;99760.09;5198814;28;20029;-77
2021/01/12 01:23:50;;;;;;;18.63;12.30;;;;;;;2.89;100.00;99749.00;5198188;28;20017;-78
2021/01/12 01:26:21;;;;;;;20.15;12.50;;;;;;;2.85;100.00;99750.78;5202025;28;20468;-77
2021/01/12 01:28:51;;;;;;;18.50;12.73;;;;;;;2.88;100.00;99747.31;5202432;28;20132;-77
2021/01/12 01:31:21;;;;;;;19.05;11.93;;;;;;;2.96;100.00;99743.72;5202149;28;20030;-77
2021/01/12 01:33:52;;;;;;;19.27;13.20;;;;;;;2.96;100.00;99732.53;5202079;28;20063;-78
2021/01/12 01:36:22;;;;;;;18.40;11.65;;;;;;;3.00;100.00;99736.78;5201314;28;20054;-77
2021/01/12 01:38:52;;;;;;;18.88;11.85;;;;;;;3.02;100.00;99722.13;5201410;28;20079;-77
2021/01/12 01:41:22;;;;;;;17.63;11.57;;;;;;;3.01;100.00;99723.00;5202129;28;20033;-77
2021/01/12 01:43:53;;;;;;;16.90;11.45;;;;;;;3.09;100.00;99718.53;5200866;28;20017;-77
2021/01/12 01:46:23;;;;;;;16.35;10.75;;;;;;;3.16;100.00;99725.28;5202259;28;20044;-77
2021/01/12 01:48:54;;;;;;;18.58;12.05;;;;;;;2.97;100.00;99718.75;5201477;28;20075;-77
2021/01/12 01:51:25;;;;;;;16.52;11.25;;;;;;;3.08;100.00;99722.00;5203316;28;20025;-77
2021/01/12 01:53:56;;;;;;;18.27;12.13;;;;;;;3.12;100.00;99721.03;5203402;28;20043;-77
2021/01/12 01:56:26;;;;;;;16.50;11.50;;;;;;;3.08;100.00;99720.28;5200999;28;20029;-78
2021/01/12 01:58:57;;;;;;;17.10;11.35;;;;;;;3.04;100.00;99710.03;5200961;28;20412;-78
2021/01/12 02:01:27;;;;;;;17.60;11.30;;;;;;;3.01;100.00;99713.50;5201802;28;20029;-77
2021/01/12 02:04:14;;;;;;;17.35;11.13;;;;;;;3.08;100.00;99706.50;5202002;28;20557;-77
2021/01/12 02:06:48;;;;;;;16.23;10.75;;;;;;;3.10;100.00;99694.41;5201732;28;20036;-78
2021/01/12 02:09:32;;;;;;;15.85;11.05;;;;;;;3.10;100.00;99689.25;5200384;28;20380;-77
2021/01/12 02:12:07;;;;;;;17.50;10.88;;;;;;;3.12;100.00;99692.66;5201854;28;20019;-77
2021/01/12 02:14:39;;;;;;;14.93;10.50;;;;;;;3.16;100.00;99694.31;5201384;28;20021;-77
2021/01/12 02:17:09;;;;;;;14.85;9.90;;;;;;;3.17;100.00;99676.19;5201910;28;20037;-77
2021/01/12 02:19:40;;;;;;;15.25;10.48;;;;;;;3.17;100.00;99681.34;5199792;28;20031;-77
2021/01/12 02:22:19;;;;;;;16.00;10.88;;;;;;;3.20;100.00;99690.78;5200679;28;20411;-78
2021/01/12 02:24:49;;;;;;;16.60;10.98;;;;;;;3.14;100.00;99677.97;5201163;28;20026;-78
2021/01/12 02:27:22;;;;;;;15.20;10.90;;;;;;;3.11;100.00;99667.72;5201911;28;20029;-77
2021/01/12 02:29:52;;;;;;;15.38;10.57;;;;;;;3.11;100.00;99666.00;5201399;28;20572;-77
2021/01/12 02:32:22;;;;;;;16.13;10.48;;;;;;;3.22;100.00;99663.22;5202130;28;20028;-77
2021/01/12 02:34:55;;;;;;;16.70;10.77;;;;;;;3.13;100.00;99663.38;5201442;28;20104;-77
2021/01/12 02:37:25;;;;;;;16.08;10.38;;;;;;;3.09;100.00;99651.44;5201403;28;20032;-77
2021/01/12 02:39:57;;;;;;;16.30;10.85;;;;;;;3.10;100.00;99646.25;5201379;28;20026;-77
2021/01/12 02:42:28;;;;;;;15.65;10.05;;;;;;;3.16;100.00;99648.69;5201647;28;20021;-78
2021/01/12 02:44:58;;;;;;;13.15;9.45;;;;;;;3.11;100.00;99647.94;5200246;28;20154;-77
2021/01/12 02:47:28;;;;;;;14.43;10.07;;;;;;;3.13;100.00;99643.59;5201725;28;20052;-78
2021/01/12 02:49:58;;;;;;;14.48;9.57;;;;;;;3.20;100.00;99631.41;5201867;28;20797;-77
2021/01/12 02:52:29;;;;;;;14.70;9.82;;;;;;;3.19;100.00;99627.13;5201396;28;20583;-77
2021/01/12 02:54:59;;;;;;;15.57;10.05;;;;;;;3.24;100.00;99623.59;5201151;28;20214;-78
2021/01/12 02:57:29;;;;;;;13.15;9.88;;;;;;;3.24;100.00;99621.00;5201623;28;20055;-77
2021/01/12 03:00:01;;;;;;;13.63;9.70;;;;;;;3.09;100.00;99610.13;5200392;28;20033;-78
2021/01/12 03:02:31;;;;;;;14.48;9.85;;;;;;;3.09;100.00;99610.13;5200900;28;20017;-78
2021/01/12 03:05:06;;;;;;;15.20;10.18;;;;;;;3.02;100.00;99588.78;5199870;28;20663;-78
2021/01/12 03:07:37;;;;;;;12.80;9.73;;;;;;;3.15;100.00;99602.25;5201063;28;20021;-77
2021/01/12 03:10:07;;;;;;;15.43;9.27;;;;;;;3.13;100.00;99598.84;5202842;28;20079;-77
2021/01/12 03:12:39;;;;;;;16.30;10.18;;;;;;;3.15;100.00;99592.78;5205210;28;20032;-77
2021/01/12 03:15:10;;;;;;;13.52;9.40;;;;;;;3.17;100.00;99587.63;5204950;28;20029;-77
2021/01/12 03:17:40;;;;;;;14.18;9.48;;;;;;;3.05;100.00;99582.72;5205074;28;20033;-77
2021/01/12 03:20:11;;;;;;;12.48;9.30;;;;;;;3.04;100.00;99575.84;5204889;28;20052;-78
2021/01/12 03:22:42;;;;;;;13.82;9.73;;;;;;;3.12;100.00;99576.50;5204973;28;20029;-77
2021/01/12 03:25:12;;;;;;;14.30;9.70;;;;;;;3.16;100.00;99571.25;5205388;28;20426;-78
2021/01/12 03:27:42;;;;;;;13.43;9.60;;;;;;;3.16;100.00;99565.28;5205335;28;20060;-77
2021/01/12 03:30:13;;;;;;;13.15;9.40;;;;;;;3.13;100.00;99566.16;5205574;28;20070;-77
2021/01/12 03:32:43;;;;;;;14.75;9.52;;;;;;;3.20;100.00;99556.56;5205189;28;20025;-78
2021/01/12 03:35:14;;;;;;;13.88;9.35;;;;;;;3.15;100.00;99553.22;5203983;28;20033;-77
2021/01/12 03:37:44;;;;;;;14.90;9.77;;;;;;;3.06;100.00;99556.84;5204867;28;20037;-77
2021/01/12 03:40:15;;;;;;;15.20;10.18;;;;;;;3.15;100.00;99553.22;5203986;28;20080;-78
2021/01/12 03:42:45;;;;;;;14.30;9.77;;;;;;;3.12;100.00;99548.13;5203297;28;20778;-78
2021/01/12 03:45:15;;;;;;;13.07;9.02;;;;;;;3.12;100.00;99545.53;5204125;28;20026;-78
2021/01/12 03:47:46;;;;;;;14.23;9.35;;;;;;;3.14;100.00;99541.19;5203847;28;20041;-78
2021/01/12 03:50:16;;;;;;;13.38;8.80;;;;;;;3.13;100.00;99539.50;5203116;28;20036;-78
2021/01/12 03:52:47;;;;;;;13.23;9.23;;;;;;;3.24;100.00;99529.78;5203765;28;20184;-77
2021/01/12 03:55:17;;;;;;;12.82;8.95;;;;;;;3.25;100.00;99534.06;5204360;28;20518;-78
2021/01/12 03:57:47;;;;;;;11.85;8.45;;;;;;;3.16;100.00;99521.41;5204342;28;20537;-78
2021/01/12 04:00:18;;;;;;;12.25;8.30;;;;;;;3.10;100.00;99517.22;5204330;28;20040;-77
2021/01/12 04:02:48;;;;;;;13.10;8.90;;;;;;;3.18;100.00;99517.88;5202186;28;20029;-78
2021/01/12 04:05:19;;;;;;;12.60;8.40;;;;;;;3.24;100.00;99515.16;5203517;28;20036;-78
2021/01/12 04:07:49;;;;;;;12.32;7.95;;;;;;;3.26;100.00;99512.53;5203920;28;20598;-78
2021/01/12 04:10:19;;;;;;;10.63;7.63;;;;;;;3.14;100.00;99510.22;5204609;28;20037;-77
2021/01/12 04:12:49;;;;;;;11.77;8.00;;;;;;;3.11;100.00;99505.16;5203712;28;20480;-77
2021/01/12 04:15:20;;;;;;;12.10;7.80;;;;;;;3.14;100.00;99505.06;5203890;28;20013;-78
2021/01/12 04:17:50;;;;;;;10.77;7.75;;;;;;;3.13;100.00;99498.22;5203733;28;20029;-77
2021/01/12 04:20:20;;;;;;;13.35;7.90;;;;;;;3.13;100.00;99504.25;5202340;28;20025;-77
2021/01/12 04:22:51;;;;;;;12.25;8.07;;;;;;;3.14;100.00;99497.31;5202766;28;20030;-77
2021/01/12 04:25:22;;;;;;;11.40;7.68;;;;;;;3.17;100.00;99486.97;5204381;28;20021;-77
2021/01/12 04:27:52;;;;;;;10.18;7.28;;;;;;;3.22;100.00;99485.09;5203653;28;20022;-77
2021/01/12 04:30:22;;;;;;;11.95;7.60;;;;;;;3.15;100.00;99486.13;5203664;28;20579;-78
2021/01/12 04:32:53;;;;;;;10.45;7.55;;;;;;;3.16;100.00;99478.34;5203620;28;20088;-78
2021/01/12 04:35:23;;;;;;;12.18;7.55;;;;;;;3.10;100.00;99482.81;5201321;28;20036;-78
2021/01/12 04:37:53;;;;;;;10.82;7.20;;;;;;;3.09;100.00;99470.78;5202302;28;20025;-77
2021/01/12 04:40:24;;;;;;;12.02;7.03;;;;;;;3.10;100.00;99467.31;5202289;28;20037;-77
2021/01/12 04:42:57;;;;;;;10.55;7.32;;;;;;;3.11;100.00;99466.44;5197063;28;20042;-77
2021/01/12 04:45:28;;;;;;;9.18;6.85;;;;;;;3.20;100.00;99466.22;5183478;28;20029;-77
2021/01/12 04:47:58;;;;;;;11.50;7.13;;;;;;;3.19;100.00;99462.78;5183038;28;20384;-78
2021/01/12 04:50:29;;;;;;;11.73;7.32;;;;;;;3.18;100.00;99455.09;5186332;28;20025;-78
2021/01/12 04:52:59;;;;;;;10.68;7.50;;;;;;;3.11;100.00;99453.53;5202087;28;20021;-78
2021/01/12 04:55:30;;;;;;;9.88;6.93;;;;;;;3.23;100.00;99440.34;5201715;28;20026;-78
2021/01/12 04:58:00;;;;;;;10.43;7.20;;;;;;;3.06;100.00;99443.31;5203383;28;20556;-77
2021/01/12 05:00:32;;;;;;;9.38;7.05;;;;;;;3.00;100.00;99435.72;5202947;28;20036;-77
2021/01/12 05:03:08;;;;;;;9.55;6.72;;;;;;;3.13;100.00;99436.28;5203089;28;20030;-78
2021/01/12 05:05:39;;;;;;;9.05;6.50;;;;;;;3.14;100.00;99430.22;5202775;28;20407;-78
2021/01/12 05:08:12;;;;;;;9.15;6.60;;;;;;;3.13;100.00;99431.97;5203076;28;20029;-79
2021/01/12 05:10:49;;;;;;;10.63;6.47;;;;;;;3.10;100.00;99433.78;5202556;28;20064;-76
2021/01/12 05:13:23;;;;;;;8.90;6.35;;;;;;;3.06;100.00;99414.91;5201394;28;20376;-79
2021/01/12 05:15:57;;;;;;;8.98;6.22;;;;;;;3.08;100.00;99407.16;5203218;28;20061;-79
2021/01/12 05:18:29;;;;;;;8.75;6.13;;;;;;;3.16;100.00;99410.41;5203386;28;20025;-79
2021/01/12 05:21:03;;;;;;;9.60;6.47;;;;;;;3.13;100.00;99405.31;5203125;28;20021;-76
2021/01/12 05:24:12;;;;;;;8.40;6.20;;;;;;;3.03;100.00;99390.94;5202931;28;20059;-78
2021/01/12 05:26:43;;;;;;;8.45;5.97;;;;;;;3.10;100.00;99395.06;5203088;28;20037;-79
2021/01/12 05:29:14;;;;;;;9.38;6.55;;;;;;;3.12;100.00;99393.28;5202840;28;20040;-79
2021/01/12 05:31:46;;;;;;;9.23;6.68;;;;;;;3.03;100.00;99396.13;5203184;28;20056;-77
2021/01/12 05:34:17;;;;;;;9.55;6.60;;;;;;;3.08;100.00;99387.38;5202422;28;20029;-78
2021/01/12 05:36:50;;;;;;;8.60;5.85;;;;;;;3.08;100.00;99381.34;5202856;28;20036;-78
2021/01/12 05:39:23;;;;;;;9.40;5.85;;;;;;;3.08;100.00;99377.06;5202321;28;20060;-78
2021/01/12 05:41:54;;;;;;;7.70;5.82;;;;;;;3.08;100.00;99368.44;5197782;28;20448;-80
2021/01/12 05:44:24;;;;;;;8.45;5.95;;;;;;;3.09;100.00;99368.44;5202657;28;20052;-79
2021/01/12 05:46:55;;;;;;;8.38;5.90;;;;;;;3.09;100.00;99372.72;5202476;28;20022;-80
2021/01/12 05:49:25;;;;;;;8.95;5.82;;;;;;;3.02;100.00;99371.19;5202896;28;20399;-80
2021/01/12 05:51:55;;;;;;;8.15;5.80;;;;;;;3.10;100.00;99367.53;5201497;28;20021;-76
2021/01/12 05:54:26;;;;;;;11.60;6.07;;;;;;;3.12;100.00;99367.47;5201132;28;20030;-78
2021/01/12 05:56:58;;;;;;;8.20;5.70;;;;;;;3.08;100.00;99358.13;5202635;28;20035;-78
2021/01/12 05:59:30;;;;;;;7.85;5.53;;;;;;;3.05;100.00;99358.22;5198308;28;20976;-78
2021/01/12 06:02:14;;;;;;;6.97;5.15;;;;;;;3.14;100.00;99351.09;5201685;28;20114;-78
2021/01/12 06:04:47;;;;;;;9.05;5.78;;;;;;;3.09;100.00;99352.09;5190667;28;20395;-80
2021/01/12 06:07:18;;;;;;;10.93;5.88;;;;;;;3.09;100.00;99345.22;5189560;28;20037;-80
2021/01/12 06:09:49;;;;;;;10.63;6.07;;;;;;;3.10;100.00;99343.44;5198528;28;20029;-85
2021/01/12 06:12:25;;;;;;;8.48;5.78;;;;;;;3.12;100.00;99344.25;5202250;28;20052;-78
2021/01/12 06:14:59;;;;;;;7.25;5.10;;;;;;;3.12;100.00;99346.84;5202020;28;20543;-79
2021/01/12 06:17:32;;;;;;;9.10;5.97;;;;;;;3.06;100.00;99342.69;5201844;28;20565;-79
2021/01/12 06:20:04;;;;;;;8.10;5.55;;;;;;;3.14;100.00;99339.91;5200884;28;20025;-77
2021/01/12 06:22:42;;;;;;;8.10;5.32;;;;;;;3.08;100.00;99334.91;5201372;28;20484;-79
2021/01/12 06:25:15;;;;;;;8.40;5.63;;;;;;;3.12;100.00;99327.06;5200593;28;20505;-79
2021/01/12 06:27:47;;;;;;;7.05;5.18;;;;;;;3.13;100.00;99322.72;5200708;28;20079;-81
2021/01/12 06:30:17;;;;;;;7.63;5.50;;;;;;;3.10;100.00;99317.66;5192950;28;20036;-78
2021/01/12 06:32:48;;;;;;;6.85;5.00;;;;;;;3.18;100.00;99326.88;5181279;28;20022;-78
2021/01/12 06:35:19;;;;;;;7.57;5.40;;;;;;;3.14;100.00;99314.09;5182579;28;20037;-78
2021/01/12 06:37:50;;;;;;;8.48;5.10;;;;;;;3.15;100.00;99318.38;5201667;28;20048;-78
2021/01/12 06:40:21;;;;;;;7.72;5.43;;;;;;;3.18;100.00;99315.72;5200512;28;20009;-77
2021/01/12 06:42:57;;;;;;;7.90;5.30;;;;;;;3.13;100.00;99321.00;5201071;28;20032;-80
2021/01/12 06:45:28;;;;;;;7.82;5.25;;;;;;;3.18;100.00;99319.16;5202956;28;20025;-78
2021/01/12 06:47:59;;;;;;;7.13;4.85;;;;;;;3.11;100.00;99321.91;5205169;28;20053;-77
2021/01/12 06:50:31;;;;;;;6.32;4.53;;;;;;;3.17;100.00;99308.88;5204959;28;20187;-78
2021/01/12 06:53:01;;;;;;;7.22;4.82;;;;;;;3.23;100.00;99303.53;5204261;28;20037;-78
2021/01/12 06:55:32;;;;;;;6.18;4.32;;;;;;;3.20;100.00;99308.78;5205509;28;20038;-80
2021/01/12 06:58:07;;;;;;;6.13;4.38;;;;;;;3.23;100.00;99306.97;5206310;28;20652;-80
2021/01/12 07:00:38;;;;;;;5.20;3.75;;;;;;;3.20;100.00;99299.31;5205666;28;20025;-79
2021/01/12 07:03:10;;;;;;;5.97;4.20;;;;;;;3.13;100.00;99302.09;5205862;28;20567;-79
2021/01/12 07:05:44;;;;;;;5.43;3.97;;;;;;;3.26;100.00;99298.28;5196383;28;20112;-78
2021/01/12 07:08:15;;;;;;;6.78;4.45;;;;;;;3.19;100.00;99302.78;5201305;28;20067;-78
2021/01/12 07:10:47;;;;;;;6.47;4.10;;;;;;;3.19;100.00;99289.88;5204581;28;20495;-81
2021/01/12 07:13:17;;;;;;;6.88;4.30;;;;;;;3.23;100.00;99288.88;5206796;28;20463;-78
2021/01/12 07:15:49;;;;;;;6.68;4.10;;;;;;;3.28;100.00;99299.97;5205572;28;20030;-78
2021/01/12 07:18:21;;;;;;;5.05;3.67;;;;;;;3.26;100.00;99287.97;5205213;28;20100;-82
2021/01/12 07:20:52;;;;;;;6.38;4.07;;;;;;;3.25;100.00;99287.13;5204944;28;20496;-78
2021/01/12 07:23:22;;;;;;;8.88;5.07;;;;;;;3.25;100.00;99299.19;5204766;28;20057;-79
2021/01/12 07:25:52;;;;;;;4.93;3.85;;;;;;;3.30;100.00;99294.75;5204944;28;20017;-78
2021/01/12 07:28:23;;;;;;;5.68;3.70;;;;;;;3.31;100.00;99294.72;5205657;28;20111;-79
2021/01/12 07:30:56;;;;;;;4.45;3.25;;;;;;;3.32;100.00;99292.97;5204685;28;20030;-78
2021/01/12 07:33:28;;;;;;;5.20;3.65;;;;;;;3.35;100.00;99292.91;5204714;28;20041;-78
2021/01/12 07:35:59;;;;;;;5.13;3.72;;;;;;;3.33;100.00;99290.34;5201791;28;20026;-78
2021/01/12 07:38:31;;;;;;;4.47;3.38;;;;;;;3.44;100.00;99287.47;5203044;28;20040;-79
2021/01/12 07:41:03;;;;;;;4.60;3.17;;;;;;;3.42;100.00;99295.28;5204776;28;20025;-78
2021/01/12 07:43:34;;;;;;;5.07;3.42;;;;;;;3.50;100.00;99288.16;5203322;28;20690;-78
2021/01/12 07:46:04;;;;;;;5.15;3.35;;;;;;;3.40;100.00;99291.84;5204873;28;20017;-77
2021/01/12 07:48:35;;;;;;;5.75;3.67;;;;;;;3.47;100.00;99288.25;5204969;28;20033;-77
2021/01/12 07:51:05;;;;;;;4.45;2.97;;;;;;;3.44;100.00;99295.22;5204245;28;20057;-77
2021/01/12 07:53:36;;;;;;;4.55;3.35;;;;;;;3.46;100.00;99290.84;5203287;28;20531;-78
2021/01/12 07:56:07;;;;;;;5.20;3.35;;;;;;;3.40;100.00;99283.28;5204541;28;20112;-78
2021/01/12 07:58:38;;;;;;;4.32;3.00;;;;;;;3.55;100.00;99288.03;5204618;28;20036;-78
2021/01/12 08:01:08;;;;;;;4.68;3.22;;;;;;;3.36;100.00;99276.53;5203474;28;20032;-77
2021/01/12 08:03:41;;;;;;;5.88;3.35;;;;;;;3.52;100.00;99281.19;5202564;28;20052;-78
2021/01/12 08:06:12;;;;;;;4.40;3.17;;;;;;;3.42;100.00;99281.50;5202443;28;20527;-79
2021/01/12 08:08:43;;;;;;;4.88;3.33;;;;;;;3.43;100.00;99280.59;5202803;28;20064;-81
2021/01/12 08:11:15;;;;;;;6.82;3.60;;;;;;;3.52;100.00;99272.63;5202666;28;20048;-78
2021/01/12 08:13:47;;;;;;;4.82;3.20;;;;;;;3.56;100.00;99271.63;5202068;28;20032;-78
2021/01/12 08:16:17;;;;;;;4.88;3.05;;;;;;;3.59;100.00;99277.56;5202271;28;20395;-78
2021/01/12 08:18:49;;;;;;;4.75;3.17;;;;;;;3.59;100.00;99273.25;5202195;28;20036;-78
2021/01/12 08:21:19;;;;;;;6.97;3.15;;;;;;;3.58;100.00;99271.53;5203652;28;20017;-79
2021/01/12 08:24:02;;;;;;;6.15;3.83;;;;;;;3.55;100.00;99269.94;5199290;28;20013;-80
2021/01/12 08:26:32;;;;;;;6.03;4.03;;;;;;;3.66;100.00;99272.19;5184936;28;20088;-79
2021/01/12 08:29:02;;;;;;;7.82;3.83;;;;;;;3.55;100.00;99275.94;5190522;28;20025;-77
2021/01/12 08:31:34;;;;;;;4.35;3.10;;;;;;;3.63;100.00;99269.66;5204939;28;20052;-79
2021/01/12 08:34:06;;;;;;;4.03;2.85;;;;;;;3.77;100.00;99264.97;5197598;28;20026;-79
2021/01/12 08:36:36;;;;;;;4.07;2.78;;;;;;;3.74;100.00;99261.59;5204095;28;20040;-79
2021/01/12 08:39:08;;;;;;;4.18;2.65;;;;;;;3.76;100.00;99272.78;5204056;28;20029;-79
2021/01/12 08:41:45;;;;;;;4.32;2.88;;;;;;;3.74;100.00;99272.81;5204010;28;20021;-78
2021/01/12 08:44:17;;;;;;;4.60;2.85;;;;;;;3.78;100.00;99282.16;5203330;28;20025;-78
2021/01/12 08:46:48;;;;;;;4.18;3.00;;;;;;;3.68;100.00;99277.28;5203261;28;20030;-77
2021/01/12 08:49:28;;;;;;;5.07;2.72;;;;;;;3.80;100.00;99271.78;5203621;28;20525;-77
2021/01/12 08:52:01;;;;;;;3.78;2.60;;;;;;;3.74;100.00;99270.22;5202557;28;20554;-78
2021/01/12 08:54:33;;;;;;;4.25;2.60;;;;;;;3.71;100.00;99274.63;5203780;28;20036;-78
2021/01/12 08:57:04;;;;;;;4.25;2.78;;;;;;;3.86;100.00;99274.16;5203614;28;20407;-79
2021/01/12 08:59:35;;;;;;;3.78;2.67;;;;;;;3.78;100.00;99268.41;5203602;28;20041;-78
2021/01/12 09:02:05;;;;;;;3.83;2.53;;;;;;;3.82;100.00;99270.81;5203758;28;20483;-78
2021/01/12 09:04:36;;;;;;;5.55;2.70;;;;;;;3.81;100.00;99278.63;5202914;28;20051;-78
2021/01/12 09:07:07;;;;;;;4.32;2.80;;;;;;;3.86;100.00;99277.63;5199122;28;20103;-77
2021/01/12 09:09:37;;;;;;;4.72;2.63;;;;;;;3.86;100.00;99277.63;5204878;28;20029;-79
2021/01/12 09:12:10;;;;;;;4.78;2.55;;;;;;;3.87;100.00;99270.69;5202749;28;20029;-79
2021/01/12 09:14:48;;;;;;;3.92;2.53;;;;;;;3.96;100.00;99279.03;5196384;28;20029;-77
2021/01/12 09:17:20;;;;;;;4.35;2.60;;;;;;;4.14;100.00;99286.22;5203037;28;20022;-77
2021/01/12 09:19:53;;;;;;;5.57;2.95;;;;;;;4.19;100.00;99279.19;5202642;28;20097;-76
2021/01/12 09:22:29;;;;;;;4.95;2.80;;;;;;;4.27;100.00;99269.44;5203216;28;20029;-77
2021/01/12 09:24:59;;;;;;;3.95;2.55;;;;;;;4.42;100.00;99271.53;5202551;28;20021;-78
2021/01/12 09:27:29;;;;;;;7.85;3.22;;;;;;;4.40;100.00;99268.16;5203066;28;20032;-78
2021/01/12 09:30:00;;;;;;;7.53;3.55;;;;;;;4.46;100.00;99264.53;5203166;28;20060;-78
2021/01/12 09:32:34;;;;;;;5.82;3.42;;;;;;;4.49;100.00;99269.63;5202926;28;20075;-79
2021/01/12 09:35:06;;;;;;;8.48;4.40;;;;;;;4.53;100.00;99268.59;5218384;28;20120;-79
2021/01/12 09:37:36;;;;;;;8.23;4.45;;;;;;;4.56;100.00;99271.97;5203106;28;20036;-80
2021/01/12 09:40:07;;;;;;;6.40;3.35;;;;;;;4.57;100.00;99273.66;5202602;28;20024;-81
2021/01/12 09:42:44;;;;;;;8.48;4.50;;;;;;;4.67;100.00;99264.66;5203016;28;20031;-78
2021/01/12 09:45:15;;;;;;;8.07;3.83;;;;;;;4.60;100.00;99262.38;5201736;28;20060;-82
2021/01/12 09:47:46;;;;;;;7.70;3.70;;;;;;;4.59;100.00;99268.41;5204663;28;20049;-80
2021/01/12 09:50:16;;;;;;;8.15;3.10;;;;;;;4.78;100.00;99272.94;5202745;28;20034;-79
2021/01/12 09:52:47;;;;;;;5.57;2.83;;;;;;;4.66;100.00;99268.16;5207060;28;20021;-78
2021/01/12 09:55:17;;;;;;;8.13;3.20;;;;;;;4.63;100.00;99267.44;5206484;28;20510;-79
2021/01/12 09:57:50;;;;;;;7.63;3.00;;;;;;;4.59;100.00;99273.56;5202710;28;20022;-80
2021/01/12 10:00:20;;;;;;;9.57;2.95;;;;;;;4.59;100.00;99263.22;5201120;28;20033;-79
2021/01/12 10:02:51;;;;;;;5.93;2.95;;;;;;;4.70;100.00;99268.91;5202587;28;20052;-78
2021/01/12 10:05:21;;;;;;;4.57;2.42;;;;;;;4.65;100.00;99256.13;5202925;28;20503;-79
2021/01/12 10:07:51;;;;;;;3.13;1.88;;;;;;;4.66;100.00;99252.63;5202100;28;20293;-79
2021/01/12 10:10:22;;;;;;;4.28;2.28;;;;;;;4.70;100.00;99255.97;5201779;28;20116;-76
2021/01/12 10:12:52;;;;;;;3.42;2.05;;;;;;;4.77;100.00;99249.72;5202082;28;20124;-77
2021/01/12 10:15:22;;;;;;;4.18;2.00;;;;;;;4.79;100.00;99253.91;5201269;28;20029;-77
2021/01/12 10:17:53;;;;;;;5.70;2.13;;;;;;;4.70;100.00;99254.25;5202134;28;20068;-79
2021/01/12 10:20:23;;;;;;;5.43;2.70;;;;;;;4.70;100.00;99261.16;5194790;28;20037;-81
2021/01/12 10:22:54;;;;;;;4.85;2.10;;;;;;;4.61;100.00;99249.34;5201665;28;20030;-79
2021/01/12 10:25:24;;;;;;;3.80;2.05;;;;;;;4.73;100.00;99255.88;5201562;28;20041;-79
2021/01/12 10:27:55;;;;;;;2.95;1.98;;;;;;;4.55;100.00;99259.06;5201460;28;20041;-78
2021/01/12 10:30:26;;;;;;;3.05;2.25;;;;;;;4.57;100.00;99258.13;5201334;28;20070;-80
2021/01/12 10:32:57;;;;;;;4.85;2.20;;;;;;;4.69;100.00;99262.91;5201775;28;20026;-80
2021/01/12 10:35:27;;;;;;;4.35;2.30;;;;;;;4.50;100.00;99266.97;5182684;28;20030;-80
2021/01/12 10:37:57;;;;;;;5.60;2.60;;;;;;;4.47;100.00;99269.66;5193088;28;20025;-78
2021/01/12 10:40:28;;;;;;;3.25;2.00;;;;;;;4.58;100.00;99269.28;5201140;28;20771;-77
2021/01/12 10:42:58;;;;;;;3.30;2.20;;;;;;;4.61;100.00;99272.63;5200819;28;20092;-80
2021/01/12 10:45:28;;;;;;;5.07;2.60;;;;;;;4.66;100.00;99272.50;5200559;28;20094;-78
2021/01/12 10:47:59;;;;;;;4.45;2.58;;;;;;;4.62;100.00;99270.91;5201604;28;20061;-76
2021/01/12 10:50:29;;;;;;;6.70;3.13;;;;;;;4.56;100.00;99271.97;5201330;28;20083;-79
2021/01/12 10:52:59;;;;;;;6.38;3.70;;;;;;;4.56;100.00;99287.47;5200468;28;20454;-79
2021/01/12 10:55:30;;;;;;;5.95;3.28;;;;;;;4.81;100.00;99298.69;5201388;28;20025;-78
2021/01/12 10:58:00;;;;;;;9.27;4.35;;;;;;;4.73;100.00;99308.47;5201823;28;20082;-79
2021/01/12 11:00:30;;;;;;;5.30;3.10;;;;;;;4.75;100.00;99319.63;5200954;28;20025;-76
2021/01/12 11:03:07;;;;;;;3.28;2.42;;;;;;;4.78;100.00;99324.69;5201397;28;20021;-80
2021/01/12 11:05:37;;;;;;;4.20;2.92;;;;;;;4.75;100.00;99321.34;5194462;28;20357;-81
2021/01/12 11:08:07;;;;;;;3.25;2.20;;;;;;;4.69;100.00;99334.47;5200688;28;20033;-79
2021/01/12 11:10:37;;;;;;;4.25;2.92;;;;;;;4.62;100.00;99340.75;5200762;28;20036;-78
2021/01/12 11:13:08;;;;;;;4.25;2.80;;;;;;;4.53;100.00;99352.25;5201144;28;20029;-80
2021/01/12 11:15:42;;;;;;;3.92;1.92;;;;;;;4.45;100.00;99354.19;5201284;28;20025;-79
2021/01/12 11:18:13;;;;;;;4.00;2.05;;;;;;;4.40;100.00;99358.69;5201258;28;20026;-79
2021/01/12 11:20:44;;;;;;;6.10;1.38;;;;;;;4.23;100.00;99360.91;5201403;28;20028;-79
2021/01/12 11:23:15;;;;;;;5.70;1.05;;;;;;;4.30;100.00;99367.59;5200381;28;20080;-79
2021/01/12 11:25:46;;;;;;;2.35;0.80;;;;;;;4.23;100.00;99365.22;5204778;28;20024;-78
2021/01/12 11:28:16;;;;;;;1.27;0.50;;;;;;;3.95;100.00;99370.34;5200747;28;20395;-78
2021/01/12 11:30:46;;;;;;;1.70;0.50;;;;;;;3.79;100.00;99376.00;5200595;28;20025;-78
2021/01/12 11:33:17;;;;;;;4.70;0.50;;;;;;;3.61;100.00;99379.94;5206319;28;20028;-79
2021/01/12 11:35:47;;;;;;;5.80;0.70;;;;;;;3.52;100.00;99381.06;5201056;28;20570;-77
2021/01/12 11:38:19;;;;;;;3.10;0.85;;;;;;;3.57;100.00;99386.97;5204649;28;20032;-79
2021/01/12 11:40:50;;;;;;;6.45;0.70;;;;;;;3.49;100.00;99388.88;5204117;28;20021;-78
2021/01/12 11:43:20;;;;;;;3.45;0.95;;;;;;;3.58;100.00;99381.75;5203385;28;20044;-78
2021/01/12 11:45:51;;;;;;;5.32;0.95;;;;;;;3.64;100.00;99390.16;5204304;28;20041;-78